Time;durP1;ratioP1;P1;durP2;ratioP2;P2;SDS_P1;SDS_P2;PMS_P1;PMS_P2;Temp;Humidity;BMP_temperature;BMP_pressure;BME280_temperature;BME280_humidity;BME280_pressure;Samples;Min_cycle;Max_cycle;Signal;HPM_P1;HPM_P2
2023/12/28 00:01:35;;;;;;;;;;;7.50;88.70;;;;;;5035019;28;19995;-92
2023/12/28 00:04:01;;;;;;;;;;;7.50;89.00;;;;;;5051328;28;20300;-91
2023/12/28 00:06:26;;;;;;;;;;;7.40;89.40;;;;;;5034481;28;20431;-91
2023/12/28 00:08:52;;;;;;;;;;;7.40;89.90;;;;;;5034343;28;19905;-90
2023/12/28 00:11:18;;;;;;;;;;;7.40;89.90;;;;;;5033800;28;19905;-91
2023/12/28 00:13:43;;;;;;;;;;;7.40;90.00;;;;;;5034600;28;19941;-91
2023/12/28 00:16:09;;;;;;;;;;;7.40;90.20;;;;;;5034750;28;19960;-91
2023/12/28 00:18:34;;;;;;;;;;;7.40;90.50;;;;;;5034414;28;19913;-91
2023/12/28 00:21:00;;;;;;;;;;;7.30;90.90;;;;;;5034233;28;19912;-91
2023/12/28 00:23:25;;;;;;;;;;;7.30;91.40;;;;;;5034585;28;20358;-91
2023/12/28 00:25:51;;;;;;;;;;;7.30;91.90;;;;;;5034665;28;19954;-91
2023/12/28 00:28:17;;;;;;;;;;;7.30;92.00;;;;;;5034461;28;19905;-91
2023/12/28 00:30:42;;;;;;;;;;;7.30;92.30;;;;;;5034369;28;19905;-91
2023/12/28 00:33:08;;;;;;;;;;;7.20;92.40;;;;;;5034662;28;19911;-90
2023/12/28 00:35:33;;;;;;;;;;;7.30;92.40;;;;;;5034326;28;19927;-91
2023/12/28 00:37:58;;;;;;;;;;;7.20;92.60;;;;;;5034381;28;19905;-91
2023/12/28 00:40:24;;;;;;;;;;;7.20;92.70;;;;;;5034078;28;19956;-91
2023/12/28 00:42:49;;;;;;;;;;;7.20;92.80;;;;;;5033876;28;20369;-91
2023/12/28 00:45:15;;;;;;;;;;;7.20;92.90;;;;;;5035143;28;19905;-91
2023/12/28 00:47:43;;;;;;;;;;;7.20;92.80;;;;;;5033959;28;19993;-91
2023/12/28 00:50:08;;;;;;;;;;;7.20;92.80;;;;;;5033780;28;20319;-91
2023/12/28 00:52:34;;;;;;;;;;;7.30;92.80;;;;;;5035806;28;19987;-91
2023/12/28 00:54:59;;;;;;;;;;;7.30;92.60;;;;;;5033653;28;20384;-90
2023/12/28 00:57:25;;;;;;;;;;;7.30;92.40;;;;;;5033813;28;19960;-90
2023/12/28 00:59:50;;;;;;;;;;;7.40;92.20;;;;;;5034898;28;19950;-92
2023/12/28 01:02:16;;;;;;;;;;;7.40;92.10;;;;;;5034797;28;20070;-92
2023/12/28 01:04:41;;;;;;;;;;;7.40;92.10;;;;;;5036880;28;19912;-91
2023/12/28 01:07:07;;;;;;;;;;;7.50;92.00;;;;;;5034553;28;19909;-91
2023/12/28 01:09:32;;;;;;;5.33;4.83;;;7.50;91.80;;;;;;5036308;28;20292;-91
2023/12/28 01:11:58;;;;;;;4.40;4.00;;;7.70;91.50;;;;;;5052359;28;20176;-91
2023/12/28 01:14:24;;;;;;;7.57;4.97;;;7.70;91.30;;;;;;5051477;28;20177;-91
2023/12/28 01:16:50;;;;;;;5.10;4.60;;;7.70;91.40;;;;;;5050511;28;20556;-91
2023/12/28 01:19:16;;;;;;;5.20;4.70;;;7.80;91.30;;;;;;5049486;28;20224;-91
2023/12/28 01:21:41;;;;;;;6.33;4.90;;;7.80;91.30;;;;;;5050254;28;20205;-91
2023/12/28 01:24:07;;;;;;;;;;;7.80;91.20;;;;;;5049778;28;20184;-92
2023/12/28 01:26:34;;;;;;;;;;;7.80;91.10;;;;;;5033798;28;19905;-92
2023/12/28 01:29:02;;;;;;;;;;;7.80;90.80;;;;;;5033378;28;19920;-93
2023/12/28 01:31:28;;;;;;;;;;;7.80;91.00;;;;;;5033046;28;19909;-92
2023/12/28 01:33:53;;;;;;;;;;;7.80;91.00;;;;;;5033285;28;20023;-92
2023/12/28 01:36:20;;;;;;;;;;;7.80;90.60;;;;;;5033382;28;19904;-92
2023/12/28 01:38:46;;;;;;;;;;;7.90;90.40;;;;;;5033548;28;19905;-91
2023/12/28 01:41:15;;;;;;;;;;;7.90;90.20;;;;;;5032823;28;20293;-92
2023/12/28 01:43:42;;;;;;;11.40;10.50;;;7.90;90.40;;;;;;5032699;28;20041;-91
2023/12/28 01:46:12;;;;;;;11.53;10.53;;;8.00;90.30;;;;;;5032506;28;20571;-91
2023/12/28 01:48:37;;;;;;;;;;;7.90;90.30;;;;;;5032843;28;20215;-91
2023/12/28 01:51:03;;;;;;;;;;;7.90;90.30;;;;;;5033183;28;19905;-92
2023/12/28 01:53:29;;;;;;;;;;;7.90;90.20;;;;;;5032845;28;19912;-91
2023/12/28 01:55:55;;;;;;;12.97;11.97;;;7.90;90.20;;;;;;5033018;28;20369;-91
2023/12/28 01:58:20;;;;;;;;;;;7.90;90.20;;;;;;5032681;28;20207;-92
2023/12/28 02:00:47;;;;;;;12.33;11.23;;;8.00;90.00;;;;;;5049147;28;19912;-92
2023/12/28 02:03:13;;;;;;;12.27;11.17;;;8.00;89.80;;;;;;5032643;28;20677;-91
2023/12/28 02:05:38;;;;;;;12.37;11.37;;;8.00;89.90;;;;;;5032360;28;20192;-92
2023/12/28 02:08:05;;;;;;;12.47;11.47;;;7.90;90.00;;;;;;5032565;28;20257;-91
2023/12/28 02:10:31;;;;;;;8.57;5.63;;;8.00;90.00;;;;;;5032474;28;20203;-91
2023/12/28 02:12:56;;;;;;;7.70;7.00;;;7.90;90.10;;;;;;5048664;28;20176;-92
2023/12/28 02:15:22;;;;;;;12.37;11.43;;;7.90;90.10;;;;;;5049460;28;20188;-91
2023/12/28 02:17:58;;;;;;;13.10;12.03;;;8.00;89.90;;;;;;5032269;28;20224;-91
2023/12/28 02:20:24;;;;;;;;;;;7.90;89.90;;;;;;5032618;28;20516;-92
2023/12/28 02:22:50;;;;;;;7.90;6.20;;;8.00;89.70;;;;;;5032708;28;20064;-90
2023/12/28 02:25:16;;;;;;;6.50;5.67;;;7.90;89.90;;;;;;5048844;28;20204;-91
2023/12/28 02:27:46;;;;;;;12.40;11.60;;;7.90;89.80;;;;;;5048848;28;20181;-90
2023/12/28 02:30:15;;;;;;;12.40;11.40;;;7.90;89.80;;;;;;5032533;28;20444;-91
2023/12/28 02:33:01;;;;;;;6.97;6.37;;;8.00;89.80;;;;;;5032868;28;20181;-91
2023/12/28 02:35:35;;;;;;;6.53;6.03;;;8.00;89.60;;;;;;5033086;28;20240;-90
2023/12/28 02:38:09;;;;;;;8.03;6.50;;;7.90;89.90;;;;;;5032243;28;20173;-91
2023/12/28 02:40:43;;;;;;;6.37;5.73;;;7.90;89.90;;;;;;5049710;28;20197;-91
2023/12/28 02:43:09;;;;;;;7.00;6.30;;;8.00;89.50;;;;;;5049643;28;20275;-91
2023/12/28 02:45:36;;;;;;;5.80;5.40;;;8.00;89.60;;;;;;5049412;28;20177;-91
2023/12/28 02:48:02;;;;;;;6.90;6.27;;;8.00;89.50;;;;;;5049127;28;20183;-91
2023/12/28 02:50:30;;;;;;;6.70;6.10;;;7.90;89.60;;;;;;5032407;28;20103;-91
2023/12/28 02:52:59;;;;;;;6.67;6.10;;;7.90;89.60;;;;;;5048649;28;20180;-91
2023/12/28 02:55:24;;;;;;;6.73;6.20;;;7.90;89.70;;;;;;5048883;28;20276;-91
2023/12/28 02:57:51;;;;;;;7.17;6.50;;;7.90;89.80;;;;;;5049224;28;20670;-91
2023/12/28 03:00:17;;;;;;;6.95;6.30;;;8.00;89.40;;;;;;5048673;28;20135;-91
2023/12/28 03:02:43;;;;;;;6.57;6.07;;;7.90;89.60;;;;;;5048578;28;19916;-91
2023/12/28 03:05:09;;;;;;;10.33;6.80;;;7.90;89.60;;;;;;5048784;28;20230;-91
2023/12/28 03:07:36;;;;;;;7.07;6.37;;;7.90;89.40;;;;;;5049150;28;20173;-91
2023/12/28 03:10:03;;;;;;;7.03;6.43;;;7.90;89.60;;;;;;5048936;28;20200;-92
2023/12/28 03:12:28;;;;;;;;;;;8.00;89.50;;;;;;5049198;28;20177;-91
2023/12/28 03:14:54;;;;;;;6.87;6.23;;;8.00;89.20;;;;;;5032464;28;20443;-92
2023/12/28 03:17:20;;;;;;;7.80;7.00;;;7.90;89.40;;;;;;5049016;28;20228;-91
2023/12/28 03:19:45;;;;;;;7.47;6.10;;;7.90;89.50;;;;;;5048678;28;20200;-91
2023/12/28 03:22:11;;;;;;;14.00;12.83;;;8.00;89.40;;;;;;5048623;28;20205;-92
2023/12/28 03:24:38;;;;;;;14.27;12.97;;;8.10;89.20;;;;;;5031860;28;20212;-92
2023/12/28 03:27:04;;;;;;;13.70;12.77;;;8.10;88.80;;;;;;5036685;28;20181;-92
2023/12/28 03:29:30;;;;;;;13.67;12.30;;;8.00;88.80;;;;;;5035443;28;20235;-91
2023/12/28 03:31:55;;;;;;;14.70;13.30;;;7.90;89.00;;;;;;5036286;28;20212;-92
2023/12/28 03:34:22;;;;;;;13.67;12.60;;;8.00;89.10;;;;;;5035112;28;20180;-90
2023/12/28 03:36:48;;;;;;;16.00;12.80;;;7.90;89.30;;;;;;5035507;28;20184;-91
2023/12/28 03:39:14;;;;;;;13.20;12.30;;;8.00;89.10;;;;;;5035505;28;20250;-92
2023/12/28 03:41:40;;;;;;;12.70;11.80;;;8.10;88.60;;;;;;5035298;28;20208;-91
2023/12/28 03:44:05;;;;;;;;;;;8.00;88.80;;;;;;5035651;28;19912;-91
2023/12/28 03:46:31;;;;;;;;;;;8.10;88.60;;;;;;5035846;28;19905;-92
2023/12/28 03:48:56;;;;;;;;;;;8.10;88.40;;;;;;5035311;28;20051;-92
2023/12/28 03:51:22;;;;;;;;;;;8.00;88.80;;;;;;5035445;28;19912;-93
2023/12/28 03:53:47;;;;;;;;;;;7.90;89.10;;;;;;5035591;28;19909;-92
2023/12/28 03:56:20;;;;;;;;;;;7.90;89.20;;;;;;5035243;28;19952;-92
2023/12/28 03:58:46;;;;;;;;;;;7.90;89.30;;;;;;5035788;28;19905;-92
2023/12/28 04:01:11;;;;;;;13.40;12.50;;;8.10;88.90;;;;;;5034960;28;19905;-92
2023/12/28 04:03:37;;;;;;;7.33;6.70;;;8.00;88.90;;;;;;5034774;28;20181;-91
2023/12/28 04:06:02;;;;;;;9.93;7.00;;;8.00;89.00;;;;;;5051813;28;20173;-90
2023/12/28 04:08:28;;;;;;;11.57;10.33;;;8.00;88.90;;;;;;5051173;28;20179;-92
2023/12/28 04:10:53;;;;;;;13.93;12.50;;;8.00;88.90;;;;;;5034896;28;20665;-91
2023/12/28 04:13:19;;;;;;;15.03;13.73;;;8.00;88.80;;;;;;5035529;28;20597;-91
2023/12/28 04:15:44;;;;;;;8.83;6.67;;;8.00;88.80;;;;;;5035621;28;20222;-91
2023/12/28 04:18:10;;;;;;;11.40;7.23;;;8.00;89.00;;;;;;5051508;28;20196;-92
2023/12/28 04:20:36;;;;;;;12.90;11.57;;;8.10;88.70;;;;;;5051825;28;20660;-91
2023/12/28 04:23:01;;;;;;;14.50;13.00;;;8.00;89.00;;;;;;5034653;28;20200;-93
2023/12/28 04:25:27;;;;;;;15.50;14.10;;;8.00;88.90;;;;;;5034580;28;20184;-92
2023/12/28 04:27:52;;;;;;;10.40;6.85;;;8.00;88.90;;;;;;5034716;28;20179;-91
2023/12/28 04:30:18;;;;;;;7.73;6.87;;;8.10;88.70;;;;;;5051452;28;20097;-91
2023/12/28 04:32:43;;;;;;;9.97;6.90;;;8.10;88.60;;;;;;5051099;28;20173;-92
2023/12/28 04:35:09;;;;;;;7.80;7.03;;;8.00;88.80;;;;;;5050987;28;20577;-92
2023/12/28 04:37:36;;;;;;;8.17;7.23;;;8.00;88.80;;;;;;5050893;28;20200;-92
2023/12/28 04:40:03;;;;;;;11.20;7.40;;;8.00;88.70;;;;;;5051012;28;20263;-93
2023/12/28 04:42:29;;;;;;;10.20;7.63;;;8.00;88.70;;;;;;5050846;28;20207;-92
2023/12/28 04:44:54;;;;;;;7.47;6.87;;;8.00;88.80;;;;;;5051634;28;20184;-91
2023/12/28 04:47:20;;;;;;;7.10;6.50;;;8.00;88.70;;;;;;5050617;28;20263;-91
2023/12/28 04:49:45;;;;;;;18.93;7.87;;;7.90;89.10;;;;;;5050988;28;20197;-93
2023/12/28 04:52:11;;;;;;;8.00;7.20;;;8.00;88.60;;;;;;5051702;28;20550;-94
2023/12/28 04:54:39;;;;;;;;;;;8.00;88.60;;;;;;5051469;28;20087;-93
2023/12/28 04:57:05;;;;;;;;;;;8.00;88.70;;;;;;5035196;28;20284;-92
2023/12/28 04:59:30;;;;;;;8.40;7.47;;;8.10;88.70;;;;;;5035775;28;20260;-91
2023/12/28 05:01:56;;;;;;;9.65;8.60;;;8.20;88.50;;;;;;5051708;28;20427;-91
2023/12/28 05:04:21;;;;;;;8.60;7.87;;;8.10;88.40;;;;;;5051385;28;20179;-92
2023/12/28 05:06:47;;;;;;;7.07;6.57;;;8.10;88.40;;;;;;5049718;28;20176;-91
2023/12/28 05:09:13;;;;;;;8.07;7.30;;;8.20;88.40;;;;;;5049694;28;20200;-93
2023/12/28 05:11:38;;;;;;;6.77;6.17;;;8.10;88.40;;;;;;5050059;28;20195;-92
2023/12/28 05:14:05;;;;;;;14.07;6.17;;;8.00;88.80;;;;;;5050281;28;20656;-92
2023/12/28 05:16:31;;;;;;;14.77;12.23;;;8.00;88.60;;;;;;5050424;28;20185;-92
2023/12/28 05:18:56;;;;;;;13.90;12.47;;;8.30;88.10;;;;;;5033762;28;20195;-91
2023/12/28 05:21:22;;;;;;;13.93;12.27;;;8.10;88.50;;;;;;5034205;28;20183;-93
2023/12/28 05:23:47;;;;;;;12.67;11.37;;;8.20;88.40;;;;;;5033832;28;20183;-92
2023/12/28 05:26:13;;;;;;;11.50;10.77;;;8.10;88.50;;;;;;5034088;28;20173;-92
2023/12/28 05:28:38;;;;;;;12.90;11.70;;;8.00;88.90;;;;;;5033359;28;20261;-94
2023/12/28 05:31:05;;;;;;;13.10;11.77;;;8.10;88.50;;;;;;5034458;28;20626;-92
2023/12/28 05:33:30;;;;;;;;;;;8.00;88.80;;;;;;5033933;28;20065;-91
2023/12/28 05:35:56;;;;;;;;;;;8.20;88.70;;;;;;5035520;28;19912;-90
2023/12/28 05:38:21;;;;;;;;;;;8.20;88.50;;;;;;5034170;28;19932;-93
2023/12/28 05:40:47;;;;;;;12.83;11.83;;;8.10;88.60;;;;;;5034287;28;20289;-93
2023/12/28 05:43:13;;;;;;;;;;;8.20;88.40;;;;;;5035339;28;20200;-92
2023/12/28 05:45:38;;;;;;;;;;;8.10;88.70;;;;;;5035486;28;19905;-91
2023/12/28 05:48:04;;;;;;;;;;;8.00;88.90;;;;;;5033302;28;20370;-92
2023/12/28 05:50:30;;;;;;;;;;;8.10;89.10;;;;;;5034243;28;19905;-91
2023/12/28 05:52:56;;;;;;;;;;;8.30;88.60;;;;;;5035877;28;20335;-92
2023/12/28 05:55:21;;;;;;;11.23;10.07;;;8.30;88.30;;;;;;5034402;28;19905;-91
2023/12/28 05:57:47;;;;;;;10.87;9.90;;;8.40;88.20;;;;;;5033526;28;20176;-92
2023/12/28 06:00:14;;;;;;;11.47;10.50;;;8.50;88.20;;;;;;5050440;28;20657;-91
2023/12/28 06:02:40;;;;;;;9.93;9.13;;;8.40;88.20;;;;;;5033777;28;20211;-91
2023/12/28 06:05:06;;;;;;;8.37;6.97;;;8.30;88.50;;;;;;5049654;28;20260;-91
2023/12/28 06:07:32;;;;;;;7.47;6.37;;;8.40;88.30;;;;;;5050234;28;20177;-92
2023/12/28 06:09:57;;;;;;;9.70;8.90;;;8.40;88.20;;;;;;5050286;28;20668;-91
2023/12/28 06:12:23;;;;;;;12.53;10.03;;;8.30;88.40;;;;;;5049872;28;20176;-92
2023/12/28 06:14:49;;;;;;;9.90;8.97;;;8.30;88.50;;;;;;5032973;28;20187;-92
2023/12/28 06:17:18;;;;;;;10.33;6.37;;;8.30;88.80;;;;;;5050040;28;20188;-92
2023/12/28 06:19:44;;;;;;;7.23;5.67;;;8.40;88.70;;;;;;5049846;28;20200;-91
2023/12/28 06:22:10;;;;;;;7.00;6.40;;;8.40;88.70;;;;;;5049506;28;20208;-92
2023/12/28 06:24:40;;;;;;;8.37;6.20;;;8.30;88.80;;;;;;5049291;28;20664;-91
2023/12/28 06:27:05;;;;;;;7.27;6.30;;;8.40;88.80;;;;;;5049406;28;20184;-92
2023/12/28 06:29:31;;;;;;;6.70;6.00;;;8.50;88.80;;;;;;5049409;28;20211;-92
2023/12/28 06:31:56;;;;;;;9.63;5.73;;;8.50;88.60;;;;;;5049516;28;20594;-91
2023/12/28 06:34:22;;;;;;;7.23;5.63;;;8.50;88.70;;;;;;5049638;28;20275;-91
2023/12/28 06:36:48;;;;;;;9.07;5.93;;;8.50;88.70;;;;;;5048899;28;20656;-91
2023/12/28 06:39:13;;;;;;;7.40;6.00;;;8.50;88.90;;;;;;5049606;28;20209;-93
2023/12/28 06:41:39;;;;;;;8.10;5.70;;;8.50;89.20;;;;;;5050667;28;20208;-92
2023/12/28 06:44:04;;;;;;;5.47;5.07;;;8.50;89.00;;;;;;5049970;28;20179;-92
2023/12/28 06:46:30;;;;;;;5.80;5.17;;;8.50;89.00;;;;;;5050494;28;20544;-94
2023/12/28 06:48:57;;;;;;;10.47;6.20;;;8.50;89.10;;;;;;5050357;28;20177;-93
2023/12/28 06:51:23;;;;;;;6.47;5.87;;;8.50;88.80;;;;;;5033963;28;20652;-93
2023/12/28 06:53:49;;;;;;;9.47;6.67;;;8.50;88.70;;;;;;5051194;28;20196;-92
2023/12/28 06:56:15;;;;;;;6.73;6.17;;;8.60;88.80;;;;;;5051759;28;20204;-92
2023/12/28 06:58:41;;;;;;;8.10;6.87;;;8.50;88.90;;;;;;5053715;28;20181;-92
2023/12/28 07:01:07;;;;;;;8.33;6.13;;;8.70;88.50;;;;;;5054844;28;20224;-92
2023/12/28 07:03:33;;;;;;;10.47;6.30;;;8.50;88.60;;;;;;5055590;28;20180;-93
2023/12/28 07:06:03;;;;;;;7.70;6.30;;;8.40;89.00;;;;;;5054248;28;20176;-93
2023/12/28 07:08:28;;;;;;;9.87;9.17;;;8.50;89.00;;;;;;5053723;28;20185;-92
2023/12/28 07:10:54;;;;;;;9.87;9.07;;;8.50;88.90;;;;;;5056050;28;20250;-92
2023/12/28 07:13:19;;;;;;;10.77;9.70;;;8.60;88.60;;;;;;5053818;28;20203;-91
2023/12/28 07:15:45;;;;;;;11.25;10.10;;;8.60;88.50;;;;;;5052884;28;20176;-92
2023/12/28 07:18:11;;;;;;;10.25;9.35;;;8.60;88.60;;;;;;5036709;28;20420;-91
2023/12/28 07:20:36;;;;;;;9.73;8.90;;;8.60;88.60;;;;;;5053227;28;20220;-91
2023/12/28 07:23:03;;;;;;;10.17;9.33;;;8.70;88.10;;;;;;5053329;28;20224;-92
2023/12/28 07:25:28;;;;;;;10.70;9.37;;;8.70;88.30;;;;;;5053649;28;20329;-92
2023/12/28 07:27:54;;;;;;;11.20;9.90;;;8.70;88.30;;;;;;5053052;28;20625;-91
2023/12/28 07:30:19;;;;;;;10.93;10.13;;;8.60;88.40;;;;;;5052646;28;20193;-91
2023/12/28 07:32:45;;;;;;;10.73;9.83;;;8.70;88.00;;;;;;5036659;28;20264;-92
2023/12/28 07:35:11;;;;;;;10.30;9.60;;;8.70;88.00;;;;;;5053719;28;20216;-93
2023/12/28 07:37:37;;;;;;;12.83;11.63;;;8.70;88.10;;;;;;5054052;28;20184;-92
2023/12/28 07:40:03;;;;;;;11.67;10.77;;;8.70;88.10;;;;;;5036915;28;20274;-92
2023/12/28 07:42:29;;;;;;;11.60;10.50;;;8.70;88.30;;;;;;5039474;28;20616;-92
2023/12/28 07:44:55;;;;;;;11.63;10.57;;;8.70;88.20;;;;;;5039459;28;20230;-90
2023/12/28 07:47:21;;;;;;;10.13;6.83;;;8.70;88.20;;;;;;5037331;28;20778;-90
2023/12/28 07:49:46;;;;;;;8.30;6.40;;;8.70;88.10;;;;;;5039077;28;20196;-92
2023/12/28 07:52:12;;;;;;;7.43;6.70;;;8.80;87.70;;;;;;5055496;28;20184;-91
2023/12/28 07:54:38;;;;;;;12.80;11.77;;;9.00;87.30;;;;;;5055750;28;20192;-91
2023/12/28 07:57:04;;;;;;;13.57;12.40;;;8.90;87.40;;;;;;5039785;28;20180;-90
2023/12/28 07:59:29;;;;;;;8.97;6.10;;;9.00;87.50;;;;;;5039632;28;20563;-90
2023/12/28 08:01:56;;;;;;;6.90;6.20;;;9.10;87.20;;;;;;5055706;28;20200;-90
2023/12/28 08:04:21;;;;;;;13.87;9.70;;;9.20;87.10;;;;;;5057731;28;20234;-91
2023/12/28 08:06:47;;;;;;;14.07;12.87;;;9.30;86.50;;;;;;5055422;28;20537;-91
2023/12/28 08:09:12;;;;;;;14.47;13.23;;;9.30;86.50;;;;;;5038802;28;20196;-89
2023/12/28 08:11:38;;;;;;;11.47;7.57;;;9.20;86.70;;;;;;5040592;28;20271;-90
2023/12/28 08:14:04;;;;;;;10.50;6.97;;;9.40;86.60;;;;;;5057788;28;20187;-90
2023/12/28 08:16:30;;;;;;;20.53;7.17;;;9.30;86.50;;;;;;5057054;28;20177;-92
2023/12/28 08:18:56;;;;;;;12.33;11.33;;;9.30;86.50;;;;;;5042770;28;20200;-91
2023/12/28 08:21:21;;;;;;;19.47;11.93;;;9.40;86.50;;;;;;5043263;28;20276;-90
2023/12/28 08:23:47;;;;;;;8.90;6.90;;;9.50;86.40;;;;;;5045216;28;20249;-90
2023/12/28 08:26:13;;;;;;;9.67;7.37;;;9.50;86.40;;;;;;5064705;28;20173;-91
2023/12/28 08:28:39;;;;;;;8.93;7.43;;;9.50;86.30;;;;;;5045244;28;20200;-92
2023/12/28 08:31:07;;;;;;;13.33;11.93;;;9.60;86.30;;;;;;5046823;28;20220;-91
2023/12/28 08:33:33;;;;;;;12.17;11.10;;;9.50;86.40;;;;;;5043359;28;20264;-91
2023/12/28 08:35:59;;;;;;;7.43;6.80;;;9.60;86.20;;;;;;5043790;28;20204;-91
2023/12/28 08:38:25;;;;;;;;;;;9.70;86.10;;;;;;5061141;28;20174;-90
2023/12/28 08:40:50;;;;;;;11.25;10.20;;;9.60;86.30;;;;;;5045892;28;20184;-90
2023/12/28 08:43:16;;;;;;;13.20;11.90;;;9.80;85.70;;;;;;5045360;28;20433;-90
2023/12/28 08:45:42;;;;;;;13.33;12.13;;;9.80;85.80;;;;;;5044659;28;20189;-91
2023/12/28 08:48:07;;;;;;;8.70;7.87;;;9.90;85.30;;;;;;5038327;28;20263;-90
2023/12/28 08:50:33;;;;;;;8.90;7.10;;;9.90;85.60;;;;;;5037692;28;20275;-91
2023/12/28 08:52:58;;;;;;;7.90;7.20;;;9.80;85.90;;;;;;5037004;28;20227;-91
2023/12/28 08:55:24;;;;;;;17.03;8.50;;;9.80;85.80;;;;;;5051811;28;20246;-91
2023/12/28 08:57:49;;;;;;;7.63;7.03;;;9.80;86.00;;;;;;5051294;28;20276;-91
2023/12/28 09:00:16;;;;;;;8.73;8.03;;;10.00;85.10;;;;;;5054787;28;20197;-90
2023/12/28 09:02:42;;;;;;;9.17;7.70;;;10.10;84.70;;;;;;5036048;28;20203;-91
2023/12/28 09:05:09;;;;;;;9.43;8.17;;;10.00;84.80;;;;;;5051459;28;20189;-93
2023/12/28 09:07:38;;;;;;;10.17;8.80;;;10.10;84.40;;;;;;5037918;28;20177;-92
2023/12/28 09:10:04;;;;;;;9.10;8.20;;;10.20;84.10;;;;;;5051687;28;20196;-93
2023/12/28 09:12:30;;;;;;;13.30;9.67;;;10.20;84.00;;;;;;5050505;28;20180;-90
2023/12/28 09:14:56;;;;;;;10.50;8.50;;;10.30;83.70;;;;;;5035241;28;20180;-91
2023/12/28 09:17:22;;;;;;;11.70;8.03;;;10.30;84.00;;;;;;5058050;28;20185;-92
2023/12/28 09:19:47;;;;;;;11.43;9.97;;;10.30;84.00;;;;;;5056228;28;20287;-91
2023/12/28 09:22:13;;;;;;;10.53;8.50;;;10.40;83.10;;;;;;5034215;28;20695;-91
2023/12/28 09:24:39;;;;;;;10.83;8.53;;;10.30;83.70;;;;;;5050991;28;20255;-91
2023/12/28 09:27:05;;;;;;;11.67;8.70;;;10.30;83.80;;;;;;5035572;28;20168;-91
2023/12/28 09:29:31;;;;;;;11.73;8.67;;;10.30;83.30;;;;;;5055463;28;20199;-91
2023/12/28 09:31:56;;;;;;;11.50;9.17;;;10.40;83.10;;;;;;5055592;28;20173;-90
2023/12/28 09:34:22;;;;;;;12.47;9.43;;;10.30;83.40;;;;;;5038791;28;20173;-91
2023/12/28 09:36:48;;;;;;;20.30;9.70;;;10.30;83.30;;;;;;5055208;28;20184;-91
2023/12/28 09:39:13;;;;;;;19.40;15.47;;;10.40;83.00;;;;;;5052615;28;20200;-91
2023/12/28 09:41:43;;;;;;;20.57;17.80;;;10.50;82.60;;;;;;5037789;28;20761;-91
2023/12/28 09:44:19;;;;;;;19.27;17.47;;;10.50;82.60;;;;;;5039979;28;20172;-91
2023/12/28 09:47:06;;;;;;;20.17;18.00;;;10.40;83.10;;;;;;5041264;28;20261;-92
2023/12/28 09:49:33;;;;;;;21.70;19.80;;;10.50;83.00;;;;;;5039174;28;20200;-90
2023/12/28 09:52:00;;;;;;;24.37;19.50;;;10.50;82.50;;;;;;5039960;28;20199;-91
2023/12/28 09:54:25;;;;;;;20.70;16.83;;;10.60;82.00;;;;;;5034299;28;20172;-91
2023/12/28 09:56:52;;;;;;;22.83;19.33;;;10.50;82.50;;;;;;5036422;28;20187;-90
2023/12/28 09:59:19;;;;;;;14.33;11.23;;;10.60;82.10;;;;;;5033226;28;20197;-91
2023/12/28 10:01:46;;;;;;;11.97;10.53;;;10.60;82.10;;;;;;5032368;28;20207;-90
2023/12/28 10:04:12;;;;;;;20.37;18.30;;;10.60;82.50;;;;;;5032702;28;20168;-90
2023/12/28 10:06:38;;;;;;;26.50;19.23;;;10.70;82.10;;;;;;5032312;28;20231;-90
2023/12/28 10:09:07;;;;;;;20.13;18.10;;;10.60;82.70;;;;;;5033688;28;20175;-91
2023/12/28 10:11:33;;;;;;;19.07;11.33;;;10.70;82.20;;;;;;5037067;28;20173;-91
2023/12/28 10:13:59;;;;;;;16.53;12.47;;;10.70;82.40;;;;;;5033675;28;20184;-90
2023/12/28 10:16:25;;;;;;;21.50;17.33;;;10.70;82.30;;;;;;5032535;28;20181;-91
2023/12/28 10:18:51;;;;;;;18.27;16.87;;;10.70;82.00;;;;;;5033652;28;20702;-91
2023/12/28 10:21:16;;;;;;;12.13;10.83;;;10.70;82.10;;;;;;5033383;28;20192;-91
2023/12/28 10:23:42;;;;;;;14.67;11.33;;;10.70;82.00;;;;;;5033403;28;20177;-91
2023/12/28 10:26:08;;;;;;;15.00;11.43;;;10.80;81.40;;;;;;5033146;28;20250;-91
2023/12/28 10:28:38;;;;;;;20.73;18.53;;;10.80;81.70;;;;;;5034903;28;20259;-92
2023/12/28 10:31:04;;;;;;;26.30;19.87;;;10.70;81.50;;;;;;5034044;28;20283;-90
2023/12/28 10:33:38;;;;;;;14.80;10.90;;;10.70;81.80;;;;;;5032518;28;20184;-89
2023/12/28 10:36:08;;;;;;;17.17;11.37;;;10.70;82.30;;;;;;5037148;28;20219;-90
2023/12/28 10:38:38;;;;;;;13.90;10.93;;;10.80;81.80;;;;;;5035789;28;20216;-89
2023/12/28 10:41:08;;;;;;;25.33;17.17;;;10.80;81.50;;;;;;5035715;28;20200;-91
2023/12/28 10:43:57;;;;;;;18.87;16.60;;;10.90;81.90;;;;;;5045926;28;20215;-93
2023/12/28 10:46:27;;;;;;;24.07;18.53;;;10.80;82.10;;;;;;5053263;28;20180;-93
2023/12/28 10:48:59;;;;;;;21.07;17.53;;;10.80;82.30;;;;;;5052076;28;20235;-90
2023/12/28 10:51:29;;;;;;;21.57;16.77;;;10.80;82.00;;;;;;5051854;28;20180;-92
2023/12/28 10:54:18;;;;;;;28.03;17.53;;;10.80;81.80;;;;;;5035987;28;20235;-90
2023/12/28 10:56:53;;;;;;;26.60;16.40;;;10.70;82.10;;;;;;5036785;28;20205;-88
2023/12/28 10:59:27;;;;;;;21.77;13.60;;;10.80;81.90;;;;;;5037179;28;20196;-89
2023/12/28 11:01:56;;;;;;;14.90;13.43;;;10.80;81.60;;;;;;5036051;28;20197;-90
2023/12/28 11:04:42;;;;;;;20.47;12.37;;;10.80;81.90;;;;;;5035598;28;20629;-90
2023/12/28 11:07:12;;;;;;;15.90;11.37;;;10.80;81.80;;;;;;5036479;28;20180;-90
2023/12/28 11:09:41;;;;;;;27.23;13.17;;;10.80;81.40;;;;;;5045331;28;20291;-91
2023/12/28 11:12:10;;;;;;;15.63;12.50;;;10.80;81.40;;;;;;5039335;28;20164;-92
2023/12/28 11:14:38;;;;;;;20.67;12.83;;;10.80;81.40;;;;;;5038822;28;20215;-90
2023/12/28 11:17:04;;;;;;;16.90;13.30;;;10.70;82.20;;;;;;5035290;28;20172;-92
2023/12/28 11:19:31;;;;;;;16.50;13.40;;;10.80;81.70;;;;;;5035299;28;20197;-90
2023/12/28 11:21:59;;;;;;;25.00;15.67;;;10.70;82.00;;;;;;5035464;28;20262;-90
2023/12/28 11:24:27;;;;;;;27.30;14.57;;;10.80;81.20;;;;;;5036389;28;20226;-91
2023/12/28 11:26:57;;;;;;;28.67;15.40;;;10.80;81.20;;;;;;5035062;28;20204;-90
2023/12/28 11:29:26;;;;;;;21.67;14.67;;;10.80;81.60;;;;;;5036178;28;20195;-91
2023/12/28 11:31:57;;;;;;;20.97;15.57;;;10.80;81.80;;;;;;5036157;28;20256;-90
2023/12/28 11:34:29;;;;;;;26.33;21.50;;;10.80;81.80;;;;;;5035378;28;20200;-90
2023/12/28 11:36:57;;;;;;;24.00;21.27;;;10.70;81.80;;;;;;5036413;28;20659;-91
2023/12/28 11:39:38;;;;;;;25.67;22.03;;;10.90;81.20;;;;;;5034816;28;20250;-90
2023/12/28 11:42:08;;;;;;;25.07;20.80;;;10.90;81.00;;;;;;5036212;28;20181;-90
2023/12/28 11:44:44;;;;;;;26.60;22.57;;;10.90;80.90;;;;;;5034729;28;20277;-91
2023/12/28 11:47:20;;;;;;;24.10;21.70;;;11.00;80.40;;;;;;5033825;28;20178;-90
2023/12/28 11:49:55;;;;;;;24.27;21.97;;;11.00;81.00;;;;;;5034701;28;20660;-90
2023/12/28 11:52:29;;;;;;;23.50;21.10;;;10.90;81.40;;;;;;5035834;28;20540;-90
2023/12/28 11:54:55;;;;;;;26.20;21.23;;;11.00;81.30;;;;;;5035657;28;20161;-91
2023/12/28 11:57:32;;;;;;;32.60;21.90;;;11.00;81.30;;;;;;5035889;28;20645;-90
2023/12/28 12:00:04;;;;;;;29.17;23.80;;;11.00;81.30;;;;;;5035005;28;20296;-90
2023/12/28 12:02:29;;;;;;;29.73;22.73;;;11.10;81.00;;;;;;5034772;28;20726;-90
2023/12/28 12:05:00;;;;;;;27.90;22.43;;;11.10;81.00;;;;;;5034244;28;20172;-91
2023/12/28 12:07:37;;;;;;;24.03;21.37;;;11.10;81.00;;;;;;5034054;28;20188;-90
2023/12/28 12:10:03;;;;;;;17.93;16.37;;;11.10;81.10;;;;;;5034648;28;20226;-91
2023/12/28 12:12:29;;;;;;;18.97;16.97;;;10.90;81.80;;;;;;5035957;28;20172;-90
2023/12/28 12:15:12;;;;;;;25.43;21.90;;;11.00;81.40;;;;;;5034049;28;20177;-91
2023/12/28 12:17:44;;;;;;;27.17;21.03;;;10.90;82.10;;;;;;5035419;28;20197;-90
2023/12/28 12:20:18;;;;;;;21.23;18.27;;;10.80;82.40;;;;;;5034209;28;20575;-91
2023/12/28 12:22:44;;;;;;;17.53;13.93;;;10.70;83.00;;;;;;5035134;28;20243;-90
2023/12/28 12:25:09;;;;;;;17.43;13.03;;;10.70;83.70;;;;;;5035442;28;20168;-91
2023/12/28 12:27:39;;;;;;;22.60;18.60;;;10.60;84.30;;;;;;5037739;28;20180;-91
2023/12/28 12:30:11;;;;;;;30.73;19.60;;;10.60;83.60;;;;;;5038977;28;20275;-90
2023/12/28 12:32:39;;;;;;;16.63;14.93;;;10.80;82.60;;;;;;5035261;28;20250;-89
2023/12/28 12:35:06;;;;;;;19.47;15.50;;;10.90;82.10;;;;;;5034110;28;20219;-89
2023/12/28 12:37:44;;;;;;;29.00;16.17;;;10.90;81.60;;;;;;5037166;28;20177;-91
2023/12/28 12:40:25;;;;;;;17.57;15.70;;;11.00;81.40;;;;;;5033991;28;20212;-92
2023/12/28 12:42:54;;;;;;;20.57;16.50;;;11.00;81.20;;;;;;5044380;28;20751;-92
2023/12/28 12:45:21;;;;;;;21.50;15.30;;;11.00;81.30;;;;;;5042721;28;20185;-91
2023/12/28 12:47:48;;;;;;;20.67;15.10;;;11.00;81.50;;;;;;5043992;28;20179;-92
2023/12/28 12:50:15;;;;;;;25.17;15.30;;;10.90;82.00;;;;;;5034563;28;20276;-89
2023/12/28 12:52:41;;;;;;;22.57;13.70;;;11.00;81.30;;;;;;5034905;28;20264;-90
2023/12/28 12:55:11;;;;;;;20.77;13.60;;;10.80;82.80;;;;;;5035412;28;20191;-92
2023/12/28 12:57:38;;;;;;;20.10;14.90;;;10.80;82.90;;;;;;5035786;28;20255;-90
2023/12/28 13:00:07;;;;;;;19.13;13.63;;;10.70;82.60;;;;;;5034903;28;20197;-93